sensor_id;sensor_type;location;lat;lon;timestamp;temperature;humidity
7341;DHT22;6870;50.944;6.932;2023-09-08T00:01:40;27.10;30.70
7341;DHT22;6870;50.944;6.932;2023-09-08T00:04:08;27.30;30.90
7341;DHT22;6870;50.944;6.932;2023-09-08T00:06:38;27.20;30.70
7341;DHT22;6870;50.944;6.932;2023-09-08T00:09:07;27.10;30.70
7341;DHT22;6870;50.944;6.932;2023-09-08T00:11:36;27.10;30.70
7341;DHT22;6870;50.944;6.932;2023-09-08T00:14:04;27.10;30.60
7341;DHT22;6870;50.944;6.932;2023-09-08T00:16:32;27.10;30.50
7341;DHT22;6870;50.944;6.932;2023-09-08T00:19:00;27.30;30.60
7341;DHT22;6870;50.944;6.932;2023-09-08T00:21:28;27.00;30.20
7341;DHT22;6870;50.944;6.932;2023-09-08T00:23:56;27.40;30.70
7341;DHT22;6870;50.944;6.932;2023-09-08T00:26:25;27.40;30.90
7341;DHT22;6870;50.944;6.932;2023-09-08T00:28:53;27.10;30.60
7341;DHT22;6870;50.944;6.932;2023-09-08T00:31:22;27.30;30.50
7341;DHT22;6870;50.944;6.932;2023-09-08T00:33:50;27.00;30.50
7341;DHT22;6870;50.944;6.932;2023-09-08T00:36:18;27.30;30.60
7341;DHT22;6870;50.944;6.932;2023-09-08T00:38:46;27.40;30.60
7341;DHT22;6870;50.944;6.932;2023-09-08T00:41:14;27.30;30.60
7341;DHT22;6870;50.944;6.932;2023-09-08T00:43:43;27.00;30.30
7341;DHT22;6870;50.944;6.932;2023-09-08T00:46:11;27.40;30.80
7341;DHT22;6870;50.944;6.932;2023-09-08T00:48:40;27.30;30.50
7341;DHT22;6870;50.944;6.932;2023-09-08T00:51:10;26.90;30.20
7341;DHT22;6870;50.944;6.932;2023-09-08T00:53:38;27.20;30.40
7341;DHT22;6870;50.944;6.932;2023-09-08T00:56:07;26.90;30.10
7341;DHT22;6870;50.944;6.932;2023-09-08T00:58:37;27.40;30.70
7341;DHT22;6870;50.944;6.932;2023-09-08T01:01:06;27.30;30.30
7341;DHT22;6870;50.944;6.932;2023-09-08T01:03:34;27.40;30.20
7341;DHT22;6870;50.944;6.932;2023-09-08T01:06:03;27.30;30.10
7341;DHT22;6870;50.944;6.932;2023-09-08T01:08:34;27.40;30.00
7341;DHT22;6870;50.944;6.932;2023-09-08T01:11:03;27.10;30.00
7341;DHT22;6870;50.944;6.932;2023-09-08T01:13:31;27.50;30.10
7341;DHT22;6870;50.944;6.932;2023-09-08T01:15:59;26.90;29.80
7341;DHT22;6870;50.944;6.932;2023-09-08T01:18:28;27.30;30.00
7341;DHT22;6870;50.944;6.932;2023-09-08T01:21:12;26.90;29.90
7341;DHT22;6870;50.944;6.932;2023-09-08T01:23:59;26.90;29.90
7341;DHT22;6870;50.944;6.932;2023-09-08T01:26:42;27.00;30.00
7341;DHT22;6870;50.944;6.932;2023-09-08T01:29:10;26.90;30.00
7341;DHT22;6870;50.944;6.932;2023-09-08T01:31:39;27.10;30.10
7341;DHT22;6870;50.944;6.932;2023-09-08T01:34:08;26.90;30.10
7341;DHT22;6870;50.944;6.932;2023-09-08T01:36:36;27.00;30.20
7341;DHT22;6870;50.944;6.932;2023-09-08T01:39:04;27.30;30.50
7341;DHT22;6870;50.944;6.932;2023-09-08T01:41:32;27.00;30.40
7341;DHT22;6870;50.944;6.932;2023-09-08T01:44:02;26.90;30.40
7341;DHT22;6870;50.944;6.932;2023-09-08T01:46:34;27.00;30.50
7341;DHT22;6870;50.944;6.932;2023-09-08T01:49:02;27.30;30.80
7341;DHT22;6870;50.944;6.932;2023-09-08T01:51:30;27.00;30.70
7341;DHT22;6870;50.944;6.932;2023-09-08T01:53:59;27.00;30.70
7341;DHT22;6870;50.944;6.932;2023-09-08T01:56:27;26.90;30.70
7341;DHT22;6870;50.944;6.932;2023-09-08T01:58:55;27.00;30.80
7341;DHT22;6870;50.944;6.932;2023-09-08T02:01:24;26.90;30.70
7341;DHT22;6870;50.944;6.932;2023-09-08T02:03:52;26.90;30.70
7341;DHT22;6870;50.944;6.932;2023-09-08T02:06:20;27.00;30.90
7341;DHT22;6870;50.944;6.932;2023-09-08T02:08:48;27.30;31.10
7341;DHT22;6870;50.944;6.932;2023-09-08T02:11:16;26.80;30.80
7341;DHT22;6870;50.944;6.932;2023-09-08T02:13:44;27.20;31.20
7341;DHT22;6870;50.944;6.932;2023-09-08T02:16:13;27.00;31.10
7341;DHT22;6870;50.944;6.932;2023-09-08T02:18:44;27.00;31.10
7341;DHT22;6870;50.944;6.932;2023-09-08T02:21:12;27.20;31.40
7341;DHT22;6870;50.944;6.932;2023-09-08T02:23:40;26.80;31.00
7341;DHT22;6870;50.944;6.932;2023-09-08T02:26:08;26.80;31.00
7341;DHT22;6870;50.944;6.932;2023-09-08T02:28:37;27.20;31.40
7341;DHT22;6870;50.944;6.932;2023-09-08T02:31:05;26.90;31.40
7341;DHT22;6870;50.944;6.932;2023-09-08T02:33:33;26.60;31.20
7341;DHT22;6870;50.944;6.932;2023-09-08T02:36:03;26.90;31.40
7341;DHT22;6870;50.944;6.932;2023-09-08T02:38:32;26.80;31.30
7341;DHT22;6870;50.944;6.932;2023-09-08T02:41:01;26.90;31.40
7341;DHT22;6870;50.944;6.932;2023-09-08T02:43:29;26.90;31.40
7341;DHT22;6870;50.944;6.932;2023-09-08T02:45:57;26.90;31.60
7341;DHT22;6870;50.944;6.932;2023-09-08T02:48:25;26.70;31.40
7341;DHT22;6870;50.944;6.932;2023-09-08T02:50:53;26.70;31.40
7341;DHT22;6870;50.944;6.932;2023-09-08T02:53:23;26.90;31.50
7341;DHT22;6870;50.944;6.932;2023-09-08T02:55:55;27.10;31.60
7341;DHT22;6870;50.944;6.932;2023-09-08T02:58:23;27.10;31.60
7341;DHT22;6870;50.944;6.932;2023-09-08T03:00:52;26.90;31.90
7341;DHT22;6870;50.944;6.932;2023-09-08T03:03:20;26.70;31.30
7341;DHT22;6870;50.944;6.932;2023-09-08T03:05:53;26.70;31.50
7341;DHT22;6870;50.944;6.932;2023-09-08T03:08:24;26.70;31.90
7341;DHT22;6870;50.944;6.932;2023-09-08T03:10:55;26.80;31.40
7341;DHT22;6870;50.944;6.932;2023-09-08T03:13:24;26.80;31.60
7341;DHT22;6870;50.944;6.932;2023-09-08T03:15:53;26.80;31.40
7341;DHT22;6870;50.944;6.932;2023-09-08T03:18:21;27.10;31.50
7341;DHT22;6870;50.944;6.932;2023-09-08T03:20:50;26.80;31.40
7341;DHT22;6870;50.944;6.932;2023-09-08T03:23:18;26.70;31.50
7341;DHT22;6870;50.944;6.932;2023-09-08T03:25:48;26.50;31.30
7341;DHT22;6870;50.944;6.932;2023-09-08T03:28:16;26.80;31.40
7341;DHT22;6870;50.944;6.932;2023-09-08T03:30:44;26.70;31.50
7341;DHT22;6870;50.944;6.932;2023-09-08T03:33:12;26.60;31.20
7341;DHT22;6870;50.944;6.932;2023-09-08T03:35:41;26.70;31.60
7341;DHT22;6870;50.944;6.932;2023-09-08T03:38:09;26.50;31.20
7341;DHT22;6870;50.944;6.932;2023-09-08T03:40:37;26.90;31.50
7341;DHT22;6870;50.944;6.932;2023-09-08T03:43:06;26.80;31.50
7341;DHT22;6870;50.944;6.932;2023-09-08T03:45:35;26.60;31.20
7341;DHT22;6870;50.944;6.932;2023-09-08T03:48:04;26.60;31.20
7341;DHT22;6870;50.944;6.932;2023-09-08T03:50:32;26.80;31.30
7341;DHT22;6870;50.944;6.932;2023-09-08T03:53:00;26.60;31.30
7341;DHT22;6870;50.944;6.932;2023-09-08T03:55:28;26.90;31.60
7341;DHT22;6870;50.944;6.932;2023-09-08T03:57:56;26.60;31.40
7341;DHT22;6870;50.944;6.932;2023-09-08T04:00:26;26.70;31.70
7341;DHT22;6870;50.944;6.932;2023-09-08T04:02:54;26.70;31.80
7341;DHT22;6870;50.944;6.932;2023-09-08T04:05:23;27.00;31.90
7341;DHT22;6870;50.944;6.932;2023-09-08T04:07:51;26.60;31.70
7341;DHT22;6870;50.944;6.932;2023-09-08T04:10:19;26.50;31.70
7341;DHT22;6870;50.944;6.932;2023-09-08T04:12:48;27.00;32.30
7341;DHT22;6870;50.944;6.932;2023-09-08T04:15:16;26.60;31.90
7341;DHT22;6870;50.944;6.932;2023-09-08T04:17:45;26.50;31.80
7341;DHT22;6870;50.944;6.932;2023-09-08T04:20:14;27.00;32.30
7341;DHT22;6870;50.944;6.932;2023-09-08T04:22:42;26.70;32.00
7341;DHT22;6870;50.944;6.932;2023-09-08T04:25:11;26.60;31.90
7341;DHT22;6870;50.944;6.932;2023-09-08T04:27:39;26.60;32.20
7341;DHT22;6870;50.944;6.932;2023-09-08T04:30:08;26.80;32.20
7341;DHT22;6870;50.944;6.932;2023-09-08T04:32:36;26.50;32.30
7341;DHT22;6870;50.944;6.932;2023-09-08T04:35:07;26.80;32.20
7341;DHT22;6870;50.944;6.932;2023-09-08T04:37:35;26.60;32.40
7341;DHT22;6870;50.944;6.932;2023-09-08T04:40:05;26.70;32.10
7341;DHT22;6870;50.944;6.932;2023-09-08T04:42:34;26.70;32.00
7341;DHT22;6870;50.944;6.932;2023-09-08T04:45:02;26.50;32.10
7341;DHT22;6870;50.944;6.932;2023-09-08T04:47:30;26.50;32.30
7341;DHT22;6870;50.944;6.932;2023-09-08T04:49:58;26.60;32.10
7341;DHT22;6870;50.944;6.932;2023-09-08T04:52:28;26.70;32.40
7341;DHT22;6870;50.944;6.932;2023-09-08T04:54:56;26.60;32.20
7341;DHT22;6870;50.944;6.932;2023-09-08T04:57:24;26.70;32.20
7341;DHT22;6870;50.944;6.932;2023-09-08T04:59:52;26.80;32.40
7341;DHT22;6870;50.944;6.932;2023-09-08T05:02:20;26.70;32.30
7341;DHT22;6870;50.944;6.932;2023-09-08T05:04:48;26.70;32.60
7341;DHT22;6870;50.944;6.932;2023-09-08T05:07:16;26.60;32.50
7341;DHT22;6870;50.944;6.932;2023-09-08T05:09:46;26.50;32.40
7341;DHT22;6870;50.944;6.932;2023-09-08T05:12:14;26.70;32.60
7341;DHT22;6870;50.944;6.932;2023-09-08T05:14:43;26.50;32.20
7341;DHT22;6870;50.944;6.932;2023-09-08T05:17:11;26.80;32.60
7341;DHT22;6870;50.944;6.932;2023-09-08T05:19:39;26.70;33.40
7341;DHT22;6870;50.944;6.932;2023-09-08T05:22:07;26.50;32.60
7341;DHT22;6870;50.944;6.932;2023-09-08T05:24:35;26.60;32.50
7341;DHT22;6870;50.944;6.932;2023-09-08T05:27:04;26.70;32.70
7341;DHT22;6870;50.944;6.932;2023-09-08T05:29:32;26.50;32.50
7341;DHT22;6870;50.944;6.932;2023-09-08T05:32:00;26.50;32.50
7341;DHT22;6870;50.944;6.932;2023-09-08T05:34:28;26.70;32.80
7341;DHT22;6870;50.944;6.932;2023-09-08T05:36:56;26.50;32.50
7341;DHT22;6870;50.944;6.932;2023-09-08T05:39:24;26.70;32.70
7341;DHT22;6870;50.944;6.932;2023-09-08T05:41:52;26.70;32.70
7341;DHT22;6870;50.944;6.932;2023-09-08T05:44:22;26.60;32.60
7341;DHT22;6870;50.944;6.932;2023-09-08T05:46:51;26.70;32.80
7341;DHT22;6870;50.944;6.932;2023-09-08T05:49:20;26.70;32.80
7341;DHT22;6870;50.944;6.932;2023-09-08T05:51:48;26.60;32.50
7341;DHT22;6870;50.944;6.932;2023-09-08T05:54:16;26.70;32.40
7341;DHT22;6870;50.944;6.932;2023-09-08T05:56:44;26.70;32.50
7341;DHT22;6870;50.944;6.932;2023-09-08T05:59:12;26.70;32.20
7341;DHT22;6870;50.944;6.932;2023-09-08T06:01:42;26.70;32.20
7341;DHT22;6870;50.944;6.932;2023-09-08T06:04:10;26.90;32.60
7341;DHT22;6870;50.944;6.932;2023-09-08T06:06:38;26.60;32.10
7341;DHT22;6870;50.944;6.932;2023-09-08T06:09:06;26.70;32.30
7341;DHT22;6870;50.944;6.932;2023-09-08T06:11:35;26.70;32.30
7341;DHT22;6870;50.944;6.932;2023-09-08T06:14:03;26.70;32.40
7341;DHT22;6870;50.944;6.932;2023-09-08T06:16:31;26.60;32.50
7341;DHT22;6870;50.944;6.932;2023-09-08T06:19:01;26.70;32.30
7341;DHT22;6870;50.944;6.932;2023-09-08T06:21:29;26.60;32.50
7341;DHT22;6870;50.944;6.932;2023-09-08T06:23:57;26.60;32.20
7341;DHT22;6870;50.944;6.932;2023-09-08T06:26:26;26.80;32.20
7341;DHT22;6870;50.944;6.932;2023-09-08T06:28:54;26.50;32.20
7341;DHT22;6870;50.944;6.932;2023-09-08T06:31:22;26.50;32.00
7341;DHT22;6870;50.944;6.932;2023-09-08T06:33:50;26.60;32.00
7341;DHT22;6870;50.944;6.932;2023-09-08T06:36:20;27.00;32.20
7341;DHT22;6870;50.944;6.932;2023-09-08T06:38:48;26.40;31.70
7341;DHT22;6870;50.944;6.932;2023-09-08T06:41:16;26.70;31.90
7341;DHT22;6870;50.944;6.932;2023-09-08T06:43:44;26.60;32.00
7341;DHT22;6870;50.944;6.932;2023-09-08T06:46:12;26.70;32.00
7341;DHT22;6870;50.944;6.932;2023-09-08T06:48:40;26.60;31.80
7341;DHT22;6870;50.944;6.932;2023-09-08T06:51:08;26.70;31.90
7341;DHT22;6870;50.944;6.932;2023-09-08T06:53:38;26.70;31.90
7341;DHT22;6870;50.944;6.932;2023-09-08T06:56:06;26.50;32.30
7341;DHT22;6870;50.944;6.932;2023-09-08T06:58:34;26.60;31.80
7341;DHT22;6870;50.944;6.932;2023-09-08T07:01:02;26.50;31.70
7341;DHT22;6870;50.944;6.932;2023-09-08T07:03:31;26.50;31.60
7341;DHT22;6870;50.944;6.932;2023-09-08T07:06:04;26.50;31.30
7341;DHT22;6870;50.944;6.932;2023-09-08T07:08:32;26.60;32.50
7341;DHT22;6870;50.944;6.932;2023-09-08T07:11:02;26.40;31.00
7341;DHT22;6870;50.944;6.932;2023-09-08T07:13:30;26.60;31.20
7341;DHT22;6870;50.944;6.932;2023-09-08T07:15:58;26.60;31.20
7341;DHT22;6870;50.944;6.932;2023-09-08T07:18:26;26.30;31.00
7341;DHT22;6870;50.944;6.932;2023-09-08T07:20:55;26.20;31.00
7341;DHT22;6870;50.944;6.932;2023-09-08T07:23:23;26.50;31.10
7341;DHT22;6870;50.944;6.932;2023-09-08T07:25:51;26.80;31.40
7341;DHT22;6870;50.944;6.932;2023-09-08T07:28:20;26.60;31.20
7341;DHT22;6870;50.944;6.932;2023-09-08T07:31:01;26.70;31.10
7341;DHT22;6870;50.944;6.932;2023-09-08T07:33:30;26.60;31.00
7341;DHT22;6870;50.944;6.932;2023-09-08T07:36:04;26.70;31.00
7341;DHT22;6870;50.944;6.932;2023-09-08T07:38:32;26.60;31.20
7341;DHT22;6870;50.944;6.932;2023-09-08T07:41:02;26.50;30.70
7341;DHT22;6870;50.944;6.932;2023-09-08T07:43:32;26.30;31.00
7341;DHT22;6870;50.944;6.932;2023-09-08T07:46:00;26.50;30.90
7341;DHT22;6870;50.944;6.932;2023-09-08T07:48:28;26.50;30.80
7341;DHT22;6870;50.944;6.932;2023-09-08T07:50:56;26.50;30.90
7341;DHT22;6870;50.944;6.932;2023-09-08T07:53:26;26.50;30.70
7341;DHT22;6870;50.944;6.932;2023-09-08T07:55:54;26.70;30.90
7341;DHT22;6870;50.944;6.932;2023-09-08T07:58:22;26.60;30.90
7341;DHT22;6870;50.944;6.932;2023-09-08T08:00:52;26.60;30.80
7341;DHT22;6870;50.944;6.932;2023-09-08T08:03:20;26.70;30.90
7341;DHT22;6870;50.944;6.932;2023-09-08T08:05:48;26.50;31.40
7341;DHT22;6870;50.944;6.932;2023-09-08T08:08:16;26.50;30.70
7341;DHT22;6870;50.944;6.932;2023-09-08T08:10:44;26.40;30.50
7341;DHT22;6870;50.944;6.932;2023-09-08T08:13:12;26.40;30.50
7341;DHT22;6870;50.944;6.932;2023-09-08T08:15:41;26.70;31.00
7341;DHT22;6870;50.944;6.932;2023-09-08T08:18:13;26.20;30.50
7341;DHT22;6870;50.944;6.932;2023-09-08T08:20:41;26.60;31.00
7341;DHT22;6870;50.944;6.932;2023-09-08T08:23:09;26.20;30.60
7341;DHT22;6870;50.944;6.932;2023-09-08T08:25:38;26.70;31.00
7341;DHT22;6870;50.944;6.932;2023-09-08T08:28:06;26.50;31.10
7341;DHT22;6870;50.944;6.932;2023-09-08T08:30:34;26.20;30.90
7341;DHT22;6870;50.944;6.932;2023-09-08T08:33:02;26.30;30.70
7341;DHT22;6870;50.944;6.932;2023-09-08T08:35:32;26.40;30.90
7341;DHT22;6870;50.944;6.932;2023-09-08T08:38:01;26.50;30.80
7341;DHT22;6870;50.944;6.932;2023-09-08T08:40:29;26.60;30.60
7341;DHT22;6870;50.944;6.932;2023-09-08T08:42:58;26.20;30.30
7341;DHT22;6870;50.944;6.932;2023-09-08T08:45:29;26.70;30.60
7341;DHT22;6870;50.944;6.932;2023-09-08T08:47:58;26.60;30.50
7341;DHT22;6870;50.944;6.932;2023-09-08T08:50:26;26.50;30.60
7341;DHT22;6870;50.944;6.932;2023-09-08T08:52:56;26.40;30.60
7341;DHT22;6870;50.944;6.932;2023-09-08T08:55:25;26.50;30.80
7341;DHT22;6870;50.944;6.932;2023-09-08T08:57:54;26.60;31.30
7341;DHT22;6870;50.944;6.932;2023-09-08T09:00:23;26.60;31.00
7341;DHT22;6870;50.944;6.932;2023-09-08T09:02:51;26.60;31.30
7341;DHT22;6870;50.944;6.932;2023-09-08T09:05:37;26.60;31.30
7341;DHT22;6870;50.944;6.932;2023-09-08T09:08:09;26.50;31.50
7341;DHT22;6870;50.944;6.932;2023-09-08T09:10:38;26.40;31.60
7341;DHT22;6870;50.944;6.932;2023-09-08T09:13:06;26.60;32.10
7341;DHT22;6870;50.944;6.932;2023-09-08T09:15:34;26.60;31.20
7341;DHT22;6870;50.944;6.932;2023-09-08T09:18:03;26.70;31.30
7341;DHT22;6870;50.944;6.932;2023-09-08T09:20:32;26.50;31.30
7341;DHT22;6870;50.944;6.932;2023-09-08T09:23:01;26.90;31.60
7341;DHT22;6870;50.944;6.932;2023-09-08T09:25:31;26.50;30.80
7341;DHT22;6870;50.944;6.932;2023-09-08T09:28:01;26.70;30.90
7341;DHT22;6870;50.944;6.932;2023-09-08T09:30:46;26.70;31.10
7341;DHT22;6870;50.944;6.932;2023-09-08T09:33:16;26.70;30.60
7341;DHT22;6870;50.944;6.932;2023-09-08T09:35:47;26.80;30.50
7341;DHT22;6870;50.944;6.932;2023-09-08T09:38:17;26.70;30.40
7341;DHT22;6870;50.944;6.932;2023-09-08T09:40:48;26.60;30.20
7341;DHT22;6870;50.944;6.932;2023-09-08T09:43:17;26.80;30.30
7341;DHT22;6870;50.944;6.932;2023-09-08T09:45:49;27.30;30.40
7341;DHT22;6870;50.944;6.932;2023-09-08T09:48:20;26.90;30.00
7341;DHT22;6870;50.944;6.932;2023-09-08T09:50:49;26.90;30.00
7341;DHT22;6870;50.944;6.932;2023-09-08T09:53:17;26.80;29.90
7341;DHT22;6870;50.944;6.932;2023-09-08T09:55:50;26.90;29.90
7341;DHT22;6870;50.944;6.932;2023-09-08T09:58:18;27.40;30.10
7341;DHT22;6870;50.944;6.932;2023-09-08T10:00:50;27.00;30.00
7341;DHT22;6870;50.944;6.932;2023-09-08T10:03:19;26.90;29.90
7341;DHT22;6870;50.944;6.932;2023-09-08T10:05:47;26.90;29.90
7341;DHT22;6870;50.944;6.932;2023-09-08T10:08:16;27.10;30.00
7341;DHT22;6870;50.944;6.932;2023-09-08T10:10:45;26.90;30.00
7341;DHT22;6870;50.944;6.932;2023-09-08T10:13:20;26.90;30.10
7341;DHT22;6870;50.944;6.932;2023-09-08T10:15:52;26.70;30.00
7341;DHT22;6870;50.944;6.932;2023-09-08T10:18:25;26.90;30.00
7341;DHT22;6870;50.944;6.932;2023-09-08T10:20:57;27.00;29.90
7341;DHT22;6870;50.944;6.932;2023-09-08T10:23:35;27.20;30.00
7341;DHT22;6870;50.944;6.932;2023-09-08T10:26:08;27.30;30.00
7341;DHT22;6870;50.944;6.932;2023-09-08T10:28:38;27.40;30.00
7341;DHT22;6870;50.944;6.932;2023-09-08T10:31:07;27.30;30.00
7341;DHT22;6870;50.944;6.932;2023-09-08T10:33:39;26.90;29.70
7341;DHT22;6870;50.944;6.932;2023-09-08T10:36:08;27.60;30.00
7341;DHT22;6870;50.944;6.932;2023-09-08T10:38:37;27.40;29.90
7341;DHT22;6870;50.944;6.932;2023-09-08T10:41:27;26.90;29.70
7341;DHT22;6870;50.944;6.932;2023-09-08T10:44:03;27.30;29.90
7341;DHT22;6870;50.944;6.932;2023-09-08T10:46:37;26.90;29.60
7341;DHT22;6870;50.944;6.932;2023-09-08T10:49:06;27.20;29.60
7341;DHT22;6870;50.944;6.932;2023-09-08T10:51:34;27.20;29.50
7341;DHT22;6870;50.944;6.932;2023-09-08T10:54:04;27.10;29.40
7341;DHT22;6870;50.944;6.932;2023-09-08T10:56:47;27.50;29.60
7341;DHT22;6870;50.944;6.932;2023-09-08T10:59:18;27.60;29.60
7341;DHT22;6870;50.944;6.932;2023-09-08T11:01:47;27.60;29.60
7341;DHT22;6870;50.944;6.932;2023-09-08T11:04:15;27.30;29.30
7341;DHT22;6870;50.944;6.932;2023-09-08T11:06:46;27.50;29.40
7341;DHT22;6870;50.944;6.932;2023-09-08T11:09:14;27.50;29.30
7341;DHT22;6870;50.944;6.932;2023-09-08T11:11:42;27.70;29.40
7341;DHT22;6870;50.944;6.932;2023-09-08T11:14:10;27.80;29.40
7341;DHT22;6870;50.944;6.932;2023-09-08T11:16:42;27.30;29.10
7341;DHT22;6870;50.944;6.932;2023-09-08T11:19:10;27.60;29.20
7341;DHT22;6870;50.944;6.932;2023-09-08T11:21:39;27.30;29.20
7341;DHT22;6870;50.944;6.932;2023-09-08T11:24:08;27.90;29.60
7341;DHT22;6870;50.944;6.932;2023-09-08T11:26:38;27.30;29.30
7341;DHT22;6870;50.944;6.932;2023-09-08T11:29:06;27.30;29.40
7341;DHT22;6870;50.944;6.932;2023-09-08T11:31:34;27.70;29.60
7341;DHT22;6870;50.944;6.932;2023-09-08T11:34:05;27.60;29.60
7341;DHT22;6870;50.944;6.932;2023-09-08T11:36:34;27.80;29.60
7341;DHT22;6870;50.944;6.932;2023-09-08T11:39:04;27.20;29.40
7341;DHT22;6870;50.944;6.932;2023-09-08T11:41:34;27.20;29.40
7341;DHT22;6870;50.944;6.932;2023-09-08T11:44:03;27.50;29.50
7341;DHT22;6870;50.944;6.932;2023-09-08T11:46:32;27.20;29.50
7341;DHT22;6870;50.944;6.932;2023-09-08T11:49:00;27.30;29.60
7341;DHT22;6870;50.944;6.932;2023-09-08T11:51:30;27.20;29.60
7341;DHT22;6870;50.944;6.932;2023-09-08T11:53:58;27.10;29.40
7341;DHT22;6870;50.944;6.932;2023-09-08T11:56:27;27.60;29.50
7341;DHT22;6870;50.944;6.932;2023-09-08T11:58:55;27.70;29.60
7341;DHT22;6870;50.944;6.932;2023-09-08T12:01:24;27.50;29.30
7341;DHT22;6870;50.944;6.932;2023-09-08T12:03:53;27.80;30.00
7341;DHT22;6870;50.944;6.932;2023-09-08T12:06:24;27.40;29.10
7341;DHT22;6870;50.944;6.932;2023-09-08T12:08:55;27.90;29.00
7341;DHT22;6870;50.944;6.932;2023-09-08T12:11:32;28.20;28.80
7341;DHT22;6870;50.944;6.932;2023-09-08T12:14:01;28.20;28.70
7341;DHT22;6870;50.944;6.932;2023-09-08T12:16:33;28.30;28.40
7341;DHT22;6870;50.944;6.932;2023-09-08T12:19:02;28.00;28.30
7341;DHT22;6870;50.944;6.932;2023-09-08T12:21:30;27.70;28.40
7341;DHT22;6870;50.944;6.932;2023-09-08T12:24:00;27.80;28.70
7341;DHT22;6870;50.944;6.932;2023-09-08T12:26:28;27.80;28.70
7341;DHT22;6870;50.944;6.932;2023-09-08T12:28:56;28.00;28.90
7341;DHT22;6870;50.944;6.932;2023-09-08T12:31:24;28.00;28.80
7341;DHT22;6870;50.944;6.932;2023-09-08T12:33:53;28.00;28.80
7341;DHT22;6870;50.944;6.932;2023-09-08T12:36:21;27.90;28.80
7341;DHT22;6870;50.944;6.932;2023-09-08T12:38:50;27.90;28.70
7341;DHT22;6870;50.944;6.932;2023-09-08T12:41:20;27.90;28.90
7341;DHT22;6870;50.944;6.932;2023-09-08T12:43:49;27.90;28.60
7341;DHT22;6870;50.944;6.932;2023-09-08T12:46:17;28.10;28.60
7341;DHT22;6870;50.944;6.932;2023-09-08T12:48:45;27.90;28.60
7341;DHT22;6870;50.944;6.932;2023-09-08T12:51:13;27.70;28.40
7341;DHT22;6870;50.944;6.932;2023-09-08T12:53:42;28.00;28.70
7341;DHT22;6870;50.944;6.932;2023-09-08T12:56:10;28.00;28.80
7341;DHT22;6870;50.944;6.932;2023-09-08T12:58:39;28.40;28.80
7341;DHT22;6870;50.944;6.932;2023-09-08T13:01:07;28.20;28.50
7341;DHT22;6870;50.944;6.932;2023-09-08T13:03:35;28.20;28.50
7341;DHT22;6870;50.944;6.932;2023-09-08T13:06:04;28.20;28.60
7341;DHT22;6870;50.944;6.932;2023-09-08T13:08:32;28.30;28.30
7341;DHT22;6870;50.944;6.932;2023-09-08T13:11:00;28.40;28.00
7341;DHT22;6870;50.944;6.932;2023-09-08T13:13:30;28.30;27.80
7341;DHT22;6870;50.944;6.932;2023-09-08T13:15:59;28.50;28.00
7341;DHT22;6870;50.944;6.932;2023-09-08T13:18:27;28.60;28.30
7341;DHT22;6870;50.944;6.932;2023-09-08T13:20:57;28.80;27.80
7341;DHT22;6870;50.944;6.932;2023-09-08T13:23:25;29.10;27.30
7341;DHT22;6870;50.944;6.932;2023-09-08T13:25:53;28.70;27.00
7341;DHT22;6870;50.944;6.932;2023-09-08T13:28:21;29.10;27.30
7341;DHT22;6870;50.944;6.932;2023-09-08T13:30:49;29.20;27.30
7341;DHT22;6870;50.944;6.932;2023-09-08T13:33:18;28.50;26.90
7341;DHT22;6870;50.944;6.932;2023-09-08T13:35:47;28.40;26.90
7341;DHT22;6870;50.944;6.932;2023-09-08T13:38:15;28.30;26.80
7341;DHT22;6870;50.944;6.932;2023-09-08T13:40:43;28.20;26.80
7341;DHT22;6870;50.944;6.932;2023-09-08T13:43:11;28.60;27.50
7341;DHT22;6870;50.944;6.932;2023-09-08T13:45:39;28.30;27.40
7341;DHT22;6870;50.944;6.932;2023-09-08T13:48:09;28.30;27.70
7341;DHT22;6870;50.944;6.932;2023-09-08T13:50:39;28.50;27.50
7341;DHT22;6870;50.944;6.932;2023-09-08T13:53:10;28.40;27.40
7341;DHT22;6870;50.944;6.932;2023-09-08T13:55:40;28.40;27.80
7341;DHT22;6870;50.944;6.932;2023-09-08T13:58:10;28.40;28.40
7341;DHT22;6870;50.944;6.932;2023-09-08T14:00:39;28.50;28.90
7341;DHT22;6870;50.944;6.932;2023-09-08T14:03:10;28.30;29.30
7341;DHT22;6870;50.944;6.932;2023-09-08T14:05:42;28.50;30.30
7341;DHT22;6870;50.944;6.932;2023-09-08T14:08:12;28.40;30.00
7341;DHT22;6870;50.944;6.932;2023-09-08T14:10:49;28.30;30.70
7341;DHT22;6870;50.944;6.932;2023-09-08T14:13:30;28.30;30.50
7341;DHT22;6870;50.944;6.932;2023-09-08T14:15:59;28.20;30.70
7341;DHT22;6870;50.944;6.932;2023-09-08T14:18:28;28.30;30.60
7341;DHT22;6870;50.944;6.932;2023-09-08T14:20:58;28.30;30.60
7341;DHT22;6870;50.944;6.932;2023-09-08T14:23:26;28.40;30.90
7341;DHT22;6870;50.944;6.932;2023-09-08T14:25:55;28.30;31.00
7341;DHT22;6870;50.944;6.932;2023-09-08T14:28:23;28.30;30.40
7341;DHT22;6870;50.944;6.932;2023-09-08T14:30:52;28.30;30.60
7341;DHT22;6870;50.944;6.932;2023-09-08T14:33:21;28.20;30.40
7341;DHT22;6870;50.944;6.932;2023-09-08T14:35:49;28.30;30.50
7341;DHT22;6870;50.944;6.932;2023-09-08T14:38:20;28.40;30.40
7341;DHT22;6870;50.944;6.932;2023-09-08T14:40:55;28.30;30.40
7341;DHT22;6870;50.944;6.932;2023-09-08T14:43:25;28.00;30.00
7341;DHT22;6870;50.944;6.932;2023-09-08T14:45:54;28.30;30.30
7341;DHT22;6870;50.944;6.932;2023-09-08T14:48:23;28.30;30.20
7341;DHT22;6870;50.944;6.932;2023-09-08T14:50:52;28.60;30.50
7341;DHT22;6870;50.944;6.932;2023-09-08T14:53:21;28.30;30.40
7341;DHT22;6870;50.944;6.932;2023-09-08T14:55:49;28.30;30.60
7341;DHT22;6870;50.944;6.932;2023-09-08T14:58:20;28.10;30.40
7341;DHT22;6870;50.944;6.932;2023-09-08T15:00:48;28.30;30.50
7341;DHT22;6870;50.944;6.932;2023-09-08T15:03:16;28.20;30.50
7341;DHT22;6870;50.944;6.932;2023-09-08T15:05:45;28.40;30.50
7341;DHT22;6870;50.944;6.932;2023-09-08T15:08:13;28.30;30.40
7341;DHT22;6870;50.944;6.932;2023-09-08T15:10:42;28.10;30.20
7341;DHT22;6870;50.944;6.932;2023-09-08T15:13:10;28.20;30.30
7341;DHT22;6870;50.944;6.932;2023-09-08T15:15:38;28.10;30.20
7341;DHT22;6870;50.944;6.932;2023-09-08T15:18:06;28.20;30.30
7341;DHT22;6870;50.944;6.932;2023-09-08T15:20:34;28.10;30.30
7341;DHT22;6870;50.944;6.932;2023-09-08T15:23:03;28.10;30.20
7341;DHT22;6870;50.944;6.932;2023-09-08T15:25:34;28.40;30.50
7341;DHT22;6870;50.944;6.932;2023-09-08T15:28:04;28.00;30.70
7341;DHT22;6870;50.944;6.932;2023-09-08T15:30:32;28.10;30.10
7341;DHT22;6870;50.944;6.932;2023-09-08T15:33:02;28.00;31.10
7341;DHT22;6870;50.944;6.932;2023-09-08T15:35:33;28.30;30.20
7341;DHT22;6870;50.944;6.932;2023-09-08T15:38:01;28.20;30.10
7341;DHT22;6870;50.944;6.932;2023-09-08T15:40:30;28.10;30.50
7341;DHT22;6870;50.944;6.932;2023-09-08T15:42:58;28.00;30.50
7341;DHT22;6870;50.944;6.932;2023-09-08T15:45:27;28.30;30.60
7341;DHT22;6870;50.944;6.932;2023-09-08T15:47:55;28.40;30.60
7341;DHT22;6870;50.944;6.932;2023-09-08T15:50:23;28.40;30.80
7341;DHT22;6870;50.944;6.932;2023-09-08T15:52:52;28.10;30.50
7341;DHT22;6870;50.944;6.932;2023-09-08T15:55:20;28.10;30.60
7341;DHT22;6870;50.944;6.932;2023-09-08T15:57:48;28.30;30.80
7341;DHT22;6870;50.944;6.932;2023-09-08T16:00:17;28.10;30.90
7341;DHT22;6870;50.944;6.932;2023-09-08T16:02:46;28.00;30.70
7341;DHT22;6870;50.944;6.932;2023-09-08T16:05:14;28.20;31.00
7341;DHT22;6870;50.944;6.932;2023-09-08T16:07:42;27.90;30.50
7341;DHT22;6870;50.944;6.932;2023-09-08T16:10:12;28.00;30.70
7341;DHT22;6870;50.944;6.932;2023-09-08T16:12:40;28.00;30.60
7341;DHT22;6870;50.944;6.932;2023-09-08T16:15:09;27.90;30.70